sensor_id;sensor_type;location;lat;lon;timestamp;P1;durP1;ratioP1;P2;durP2;ratioP2
25615;SDS011;13482;48.234;13.006;2022-09-09T00:04:03;0.30;;;0.20;;
25615;SDS011;13482;48.234;13.006;2022-09-09T00:07:03;0.10;;;0.10;;
25615;SDS011;13482;48.234;13.006;2022-09-09T00:10:08;0.75;;;0.10;;
25615;SDS011;13482;48.234;13.006;2022-09-09T00:15:20;0.63;;;0.30;;
25615;SDS011;13482;48.234;13.006;2022-09-09T00:17:56;0.13;;;0.10;;
25615;SDS011;13482;48.234;13.006;2022-09-09T00:20:47;0.32;;;0.20;;
25615;SDS011;13482;48.234;13.006;2022-09-09T00:23:27;0.73;;;0.10;;
25615;SDS011;13482;48.234;13.006;2022-09-09T00:26:41;0.75;;;0.10;;
25615;SDS011;13482;48.234;13.006;2022-09-09T00:29:13;0.45;;;0.10;;
25615;SDS011;13482;48.234;13.006;2022-09-09T00:32:16;0.68;;;0.10;;
25615;SDS011;13482;48.234;13.006;2022-09-09T00:34:52;1.13;;;0.28;;
25615;SDS011;13482;48.234;13.006;2022-09-09T00:37:29;0.57;;;0.20;;
25615;SDS011;13482;48.234;13.006;2022-09-09T00:40:00;0.45;;;0.10;;
25615;SDS011;13482;48.234;13.006;2022-09-09T00:42:42;0.65;;;0.10;;
25615;SDS011;13482;48.234;13.006;2022-09-09T00:47:47;0.65;;;0.20;;
25615;SDS011;13482;48.234;13.006;2022-09-09T00:53:04;0.88;;;0.20;;
25615;SDS011;13482;48.234;13.006;2022-09-09T00:56:12;1.02;;;0.20;;
25615;SDS011;13482;48.234;13.006;2022-09-09T00:58:51;0.10;;;0.10;;
25615;SDS011;13482;48.234;13.006;2022-09-09T01:01:41;0.38;;;0.15;;
25615;SDS011;13482;48.234;13.006;2022-09-09T01:04:10;0.20;;;0.20;;
25615;SDS011;13482;48.234;13.006;2022-09-09T01:06:43;0.10;;;0.10;;
25615;SDS011;13482;48.234;13.006;2022-09-09T01:15:04;0.30;;;0.20;;
25615;SDS011;13482;48.234;13.006;2022-09-09T01:17:40;0.70;;;0.20;;
25615;SDS011;13482;48.234;13.006;2022-09-09T01:20:27;0.88;;;0.20;;
25615;SDS011;13482;48.234;13.006;2022-09-09T01:28:54;0.60;;;0.20;;
25615;SDS011;13482;48.234;13.006;2022-09-09T01:31:23;0.10;;;0.10;;
25615;SDS011;13482;48.234;13.006;2022-09-09T01:33:56;0.30;;;0.20;;
25615;SDS011;13482;48.234;13.006;2022-09-09T01:36:31;0.40;;;0.13;;
25615;SDS011;13482;48.234;13.006;2022-09-09T01:39:19;0.85;;;0.20;;
25615;SDS011;13482;48.234;13.006;2022-09-09T01:41:47;0.35;;;0.17;;
25615;SDS011;13482;48.234;13.006;2022-09-09T01:44:14;0.90;;;0.17;;
25615;SDS011;13482;48.234;13.006;2022-09-09T01:46:42;0.43;;;0.20;;
25615;SDS011;13482;48.234;13.006;2022-09-09T01:49:09;0.30;;;0.10;;
25615;SDS011;13482;48.234;13.006;2022-09-09T01:51:37;0.30;;;0.20;;
25615;SDS011;13482;48.234;13.006;2022-09-09T01:54:06;0.10;;;0.10;;
25615;SDS011;13482;48.234;13.006;2022-09-09T02:02:18;0.13;;;0.10;;
25615;SDS011;13482;48.234;13.006;2022-09-09T02:11:15;0.47;;;0.20;;
25615;SDS011;13482;48.234;13.006;2022-09-09T02:13:45;0.17;;;0.10;;
25615;SDS011;13482;48.234;13.006;2022-09-09T02:16:21;0.30;;;0.10;;
25615;SDS011;13482;48.234;13.006;2022-09-09T02:21:39;0.32;;;0.20;;
25615;SDS011;13482;48.234;13.006;2022-09-09T02:24:10;0.35;;;0.15;;
25615;SDS011;13482;48.234;13.006;2022-09-09T02:26:41;0.30;;;0.13;;
25615;SDS011;13482;48.234;13.006;2022-09-09T02:31:42;0.45;;;0.20;;
25615;SDS011;13482;48.234;13.006;2022-09-09T02:34:12;0.52;;;0.13;;
25615;SDS011;13482;48.234;13.006;2022-09-09T02:36:44;1.27;;;0.30;;
25615;SDS011;13482;48.234;13.006;2022-09-09T02:39:13;0.30;;;0.20;;
25615;SDS011;13482;48.234;13.006;2022-09-09T02:41:41;0.75;;;0.20;;
25615;SDS011;13482;48.234;13.006;2022-09-09T02:44:11;0.40;;;0.10;;
25615;SDS011;13482;48.234;13.006;2022-09-09T02:52:40;0.43;;;0.20;;
25615;SDS011;13482;48.234;13.006;2022-09-09T02:58:11;0.52;;;0.20;;
25615;SDS011;13482;48.234;13.006;2022-09-09T03:00:46;1.05;;;0.10;;
25615;SDS011;13482;48.234;13.006;2022-09-09T03:03:16;0.10;;;0.10;;
25615;SDS011;13482;48.234;13.006;2022-09-09T03:05:45;0.50;;;0.20;;
25615;SDS011;13482;48.234;13.006;2022-09-09T03:08:13;1.23;;;0.50;;
25615;SDS011;13482;48.234;13.006;2022-09-09T03:10:40;0.30;;;0.20;;
25615;SDS011;13482;48.234;13.006;2022-09-09T03:13:07;0.22;;;0.10;;
25615;SDS011;13482;48.234;13.006;2022-09-09T03:15:35;1.55;;;0.10;;
25615;SDS011;13482;48.234;13.006;2022-09-09T03:18:03;0.52;;;0.13;;
25615;SDS011;13482;48.234;13.006;2022-09-09T03:20:30;0.10;;;0.10;;
25615;SDS011;13482;48.234;13.006;2022-09-09T03:22:59;0.30;;;0.10;;
25615;SDS011;13482;48.234;13.006;2022-09-09T03:25:26;0.20;;;0.20;;
25615;SDS011;13482;48.234;13.006;2022-09-09T03:27:55;1.55;;;0.20;;
25615;SDS011;13482;48.234;13.006;2022-09-09T03:30:23;0.30;;;0.13;;
25615;SDS011;13482;48.234;13.006;2022-09-09T03:32:52;1.23;;;0.20;;
25615;SDS011;13482;48.234;13.006;2022-09-09T03:35:21;0.05;;;0.05;;
25615;SDS011;13482;48.234;13.006;2022-09-09T03:37:48;0.55;;;0.22;;
25615;SDS011;13482;48.234;13.006;2022-09-09T03:40:15;0.22;;;0.10;;
25615;SDS011;13482;48.234;13.006;2022-09-09T03:42:43;2.15;;;0.30;;
25615;SDS011;13482;48.234;13.006;2022-09-09T03:45:10;0.10;;;0.10;;
25615;SDS011;13482;48.234;13.006;2022-09-09T03:47:37;1.20;;;0.25;;
25615;SDS011;13482;48.234;13.006;2022-09-09T03:50:05;0.30;;;0.10;;
25615;SDS011;13482;48.234;13.006;2022-09-09T03:52:37;0.20;;;0.10;;
25615;SDS011;13482;48.234;13.006;2022-09-09T03:55:07;1.88;;;0.13;;
25615;SDS011;13482;48.234;13.006;2022-09-09T03:57:35;0.40;;;0.20;;
25615;SDS011;13482;48.234;13.006;2022-09-09T04:00:04;1.75;;;0.20;;
25615;SDS011;13482;48.234;13.006;2022-09-09T04:02:33;1.40;;;0.30;;
25615;SDS011;13482;48.234;13.006;2022-09-09T04:05:00;0.40;;;0.20;;
25615;SDS011;13482;48.234;13.006;2022-09-09T04:07:28;0.35;;;0.20;;
25615;SDS011;13482;48.234;13.006;2022-09-09T04:09:55;0.10;;;0.10;;
25615;SDS011;13482;48.234;13.006;2022-09-09T04:12:22;0.80;;;0.40;;
25615;SDS011;13482;48.234;13.006;2022-09-09T04:14:50;0.70;;;0.38;;
25615;SDS011;13482;48.234;13.006;2022-09-09T04:17:17;1.10;;;0.30;;
25615;SDS011;13482;48.234;13.006;2022-09-09T04:19:44;1.35;;;0.50;;
25615;SDS011;13482;48.234;13.006;2022-09-09T04:22:11;1.95;;;0.95;;
25615;SDS011;13482;48.234;13.006;2022-09-09T04:24:38;0.77;;;0.45;;
25615;SDS011;13482;48.234;13.006;2022-09-09T04:27:10;1.50;;;0.73;;
25615;SDS011;13482;48.234;13.006;2022-09-09T04:29:37;1.52;;;0.70;;
25615;SDS011;13482;48.234;13.006;2022-09-09T04:32:05;1.30;;;0.80;;
25615;SDS011;13482;48.234;13.006;2022-09-09T04:34:32;2.50;;;0.85;;
25615;SDS011;13482;48.234;13.006;2022-09-09T04:36:59;1.58;;;0.65;;
25615;SDS011;13482;48.234;13.006;2022-09-09T04:39:27;0.90;;;0.50;;
25615;SDS011;13482;48.234;13.006;2022-09-09T04:41:55;1.67;;;0.50;;
25615;SDS011;13482;48.234;13.006;2022-09-09T04:44:22;0.52;;;0.35;;
25615;SDS011;13482;48.234;13.006;2022-09-09T04:46:50;0.85;;;0.50;;
25615;SDS011;13482;48.234;13.006;2022-09-09T04:49:17;1.55;;;0.52;;
25615;SDS011;13482;48.234;13.006;2022-09-09T04:51:44;2.00;;;0.57;;
25615;SDS011;13482;48.234;13.006;2022-09-09T04:54:13;1.13;;;0.50;;
25615;SDS011;13482;48.234;13.006;2022-09-09T04:56:41;1.38;;;0.60;;
25615;SDS011;13482;48.234;13.006;2022-09-09T04:59:09;1.25;;;0.60;;
25615;SDS011;13482;48.234;13.006;2022-09-09T05:01:36;2.25;;;0.70;;
25615;SDS011;13482;48.234;13.006;2022-09-09T05:04:04;1.00;;;0.60;;
25615;SDS011;13482;48.234;13.006;2022-09-09T05:06:31;1.23;;;0.47;;
25615;SDS011;13482;48.234;13.006;2022-09-09T05:08:58;0.82;;;0.50;;
25615;SDS011;13482;48.234;13.006;2022-09-09T05:11:28;1.10;;;0.63;;
25615;SDS011;13482;48.234;13.006;2022-09-09T05:16:25;1.17;;;0.50;;
25615;SDS011;13482;48.234;13.006;2022-09-09T05:18:52;0.88;;;0.68;;
25615;SDS011;13482;48.234;13.006;2022-09-09T05:21:20;0.85;;;0.63;;
25615;SDS011;13482;48.234;13.006;2022-09-09T05:23:50;1.08;;;0.50;;
25615;SDS011;13482;48.234;13.006;2022-09-09T05:26:21;1.20;;;0.68;;
25615;SDS011;13482;48.234;13.006;2022-09-09T05:28:49;1.35;;;0.63;;
25615;SDS011;13482;48.234;13.006;2022-09-09T05:31:16;1.58;;;0.70;;
25615;SDS011;13482;48.234;13.006;2022-09-09T05:33:45;1.88;;;0.50;;
25615;SDS011;13482;48.234;13.006;2022-09-09T05:36:16;0.52;;;0.40;;
25615;SDS011;13482;48.234;13.006;2022-09-09T05:38:46;0.80;;;0.50;;
25615;SDS011;13482;48.234;13.006;2022-09-09T05:41:15;0.90;;;0.60;;
25615;SDS011;13482;48.234;13.006;2022-09-09T05:43:44;1.20;;;0.50;;
25615;SDS011;13482;48.234;13.006;2022-09-09T05:46:16;1.63;;;0.50;;
25615;SDS011;13482;48.234;13.006;2022-09-09T05:48:49;1.10;;;0.55;;
25615;SDS011;13482;48.234;13.006;2022-09-09T05:51:19;1.25;;;0.45;;
25615;SDS011;13482;48.234;13.006;2022-09-09T05:53:52;0.93;;;0.43;;
25615;SDS011;13482;48.234;13.006;2022-09-09T05:56:22;1.10;;;0.50;;
25615;SDS011;13482;48.234;13.006;2022-09-09T05:58:51;1.10;;;0.60;;
25615;SDS011;13482;48.234;13.006;2022-09-09T06:01:24;1.95;;;0.60;;
25615;SDS011;13482;48.234;13.006;2022-09-09T06:03:58;0.88;;;0.52;;
25615;SDS011;13482;48.234;13.006;2022-09-09T06:06:26;1.05;;;0.63;;
25615;SDS011;13482;48.234;13.006;2022-09-09T06:08:57;2.60;;;0.80;;
25615;SDS011;13482;48.234;13.006;2022-09-09T06:11:26;1.52;;;0.80;;
25615;SDS011;13482;48.234;13.006;2022-09-09T06:13:57;1.52;;;0.70;;
25615;SDS011;13482;48.234;13.006;2022-09-09T06:16:26;1.33;;;0.93;;
25615;SDS011;13482;48.234;13.006;2022-09-09T06:18:55;1.83;;;0.68;;
25615;SDS011;13482;48.234;13.006;2022-09-09T06:21:25;1.35;;;0.80;;
25615;SDS011;13482;48.234;13.006;2022-09-09T06:23:53;2.15;;;0.63;;
25615;SDS011;13482;48.234;13.006;2022-09-09T06:26:29;2.70;;;0.73;;
25615;SDS011;13482;48.234;13.006;2022-09-09T06:28:59;1.98;;;0.65;;
25615;SDS011;13482;48.234;13.006;2022-09-09T06:31:30;1.02;;;0.57;;
25615;SDS011;13482;48.234;13.006;2022-09-09T06:34:06;1.58;;;0.70;;
25615;SDS011;13482;48.234;13.006;2022-09-09T06:36:36;1.55;;;0.73;;
25615;SDS011;13482;48.234;13.006;2022-09-09T06:39:05;1.92;;;0.70;;
25615;SDS011;13482;48.234;13.006;2022-09-09T06:41:39;1.17;;;0.60;;
25615;SDS011;13482;48.234;13.006;2022-09-09T06:44:07;1.00;;;0.60;;
25615;SDS011;13482;48.234;13.006;2022-09-09T06:46:34;1.52;;;0.77;;
25615;SDS011;13482;48.234;13.006;2022-09-09T06:49:02;2.10;;;0.90;;
25615;SDS011;13482;48.234;13.006;2022-09-09T06:51:30;1.33;;;0.70;;
25615;SDS011;13482;48.234;13.006;2022-09-09T06:54:01;2.50;;;0.80;;
25615;SDS011;13482;48.234;13.006;2022-09-09T06:56:33;1.25;;;0.90;;
25615;SDS011;13482;48.234;13.006;2022-09-09T06:59:04;2.03;;;0.73;;
25615;SDS011;13482;48.234;13.006;2022-09-09T07:01:35;1.13;;;0.67;;
25615;SDS011;13482;48.234;13.006;2022-09-09T07:04:07;1.10;;;0.70;;
25615;SDS011;13482;48.234;13.006;2022-09-09T07:06:36;1.08;;;0.70;;
25615;SDS011;13482;48.234;13.006;2022-09-09T07:09:10;1.50;;;0.70;;
25615;SDS011;13482;48.234;13.006;2022-09-09T07:11:41;1.00;;;0.70;;
25615;SDS011;13482;48.234;13.006;2022-09-09T07:14:11;1.20;;;0.70;;
25615;SDS011;13482;48.234;13.006;2022-09-09T07:16:41;1.30;;;0.75;;
25615;SDS011;13482;48.234;13.006;2022-09-09T07:19:10;1.15;;;0.77;;
25615;SDS011;13482;48.234;13.006;2022-09-09T07:21:40;0.80;;;0.60;;
25615;SDS011;13482;48.234;13.006;2022-09-09T07:24:08;1.30;;;0.80;;
25615;SDS011;13482;48.234;13.006;2022-09-09T07:26:39;1.43;;;0.80;;
25615;SDS011;13482;48.234;13.006;2022-09-09T07:29:07;3.58;;;0.90;;
25615;SDS011;13482;48.234;13.006;2022-09-09T07:31:36;1.88;;;0.80;;
25615;SDS011;13482;48.234;13.006;2022-09-09T07:34:06;1.67;;;0.90;;
25615;SDS011;13482;48.234;13.006;2022-09-09T07:36:34;2.08;;;0.70;;
25615;SDS011;13482;48.234;13.006;2022-09-09T07:39:08;1.47;;;0.60;;
25615;SDS011;13482;48.234;13.006;2022-09-09T07:41:40;1.05;;;0.70;;
25615;SDS011;13482;48.234;13.006;2022-09-09T07:44:21;1.15;;;0.60;;
25615;SDS011;13482;48.234;13.006;2022-09-09T07:46:51;1.00;;;0.70;;
25615;SDS011;13482;48.234;13.006;2022-09-09T07:49:18;2.55;;;0.80;;
25615;SDS011;13482;48.234;13.006;2022-09-09T07:51:54;1.73;;;0.77;;
25615;SDS011;13482;48.234;13.006;2022-09-09T07:54:22;1.10;;;0.70;;
25615;SDS011;13482;48.234;13.006;2022-09-09T07:56:51;2.30;;;0.80;;
25615;SDS011;13482;48.234;13.006;2022-09-09T07:59:19;2.55;;;0.82;;
25615;SDS011;13482;48.234;13.006;2022-09-09T08:01:47;1.40;;;0.70;;
25615;SDS011;13482;48.234;13.006;2022-09-09T08:04:18;1.85;;;0.80;;
25615;SDS011;13482;48.234;13.006;2022-09-09T08:06:51;1.23;;;0.70;;
25615;SDS011;13482;48.234;13.006;2022-09-09T08:09:25;1.10;;;0.80;;
25615;SDS011;13482;48.234;13.006;2022-09-09T08:11:55;0.93;;;0.65;;
25615;SDS011;13482;48.234;13.006;2022-09-09T08:14:23;0.85;;;0.60;;
25615;SDS011;13482;48.234;13.006;2022-09-09T08:16:51;1.30;;;0.80;;
25615;SDS011;13482;48.234;13.006;2022-09-09T08:19:20;1.58;;;0.80;;
25615;SDS011;13482;48.234;13.006;2022-09-09T08:21:47;2.20;;;0.80;;
25615;SDS011;13482;48.234;13.006;2022-09-09T08:24:15;2.72;;;0.80;;
25615;SDS011;13482;48.234;13.006;2022-09-09T08:26:44;1.35;;;0.90;;
25615;SDS011;13482;48.234;13.006;2022-09-09T08:29:15;1.95;;;0.80;;
25615;SDS011;13482;48.234;13.006;2022-09-09T08:31:44;3.00;;;1.10;;
25615;SDS011;13482;48.234;13.006;2022-09-09T08:34:21;1.40;;;0.75;;
25615;SDS011;13482;48.234;13.006;2022-09-09T08:36:49;1.52;;;0.80;;
25615;SDS011;13482;48.234;13.006;2022-09-09T08:39:18;1.00;;;0.75;;
25615;SDS011;13482;48.234;13.006;2022-09-09T08:47:19;1.48;;;0.70;;
25615;SDS011;13482;48.234;13.006;2022-09-09T08:52:56;1.40;;;1.00;;
25615;SDS011;13482;48.234;13.006;2022-09-09T08:55:47;1.45;;;1.02;;
25615;SDS011;13482;48.234;13.006;2022-09-09T08:58:28;2.08;;;1.00;;
25615;SDS011;13482;48.234;13.006;2022-09-09T09:01:06;2.45;;;1.02;;
25615;SDS011;13482;48.234;13.006;2022-09-09T09:10:33;1.55;;;0.80;;
25615;SDS011;13482;48.234;13.006;2022-09-09T09:13:27;2.10;;;0.80;;
25615;SDS011;13482;48.234;13.006;2022-09-09T09:16:27;2.47;;;0.88;;
25615;SDS011;13482;48.234;13.006;2022-09-09T09:19:14;1.20;;;0.82;;
25615;SDS011;13482;48.234;13.006;2022-09-09T09:27:16;1.00;;;0.63;;
25615;SDS011;13482;48.234;13.006;2022-09-09T09:30:05;1.30;;;0.73;;
25615;SDS011;13482;48.234;13.006;2022-09-09T09:32:59;1.25;;;0.68;;
25615;SDS011;13482;48.234;13.006;2022-09-09T09:35:48;1.30;;;0.88;;
25615;SDS011;13482;48.234;13.006;2022-09-09T09:38:20;1.08;;;0.80;;
25615;SDS011;13482;48.234;13.006;2022-09-09T09:41:11;1.17;;;0.80;;
25615;SDS011;13482;48.234;13.006;2022-09-09T09:43:39;1.75;;;0.93;;
25615;SDS011;13482;48.234;13.006;2022-09-09T09:46:20;1.30;;;0.90;;
25615;SDS011;13482;48.234;13.006;2022-09-09T09:48:59;1.80;;;0.90;;
25615;SDS011;13482;48.234;13.006;2022-09-09T09:51:35;1.02;;;0.70;;
25615;SDS011;13482;48.234;13.006;2022-09-09T09:54:05;1.83;;;0.93;;
25615;SDS011;13482;48.234;13.006;2022-09-09T09:56:42;1.20;;;0.70;;
25615;SDS011;13482;48.234;13.006;2022-09-09T10:02:19;1.42;;;0.88;;
25615;SDS011;13482;48.234;13.006;2022-09-09T10:07:33;1.63;;;1.00;;
25615;SDS011;13482;48.234;13.006;2022-09-09T10:10:00;1.25;;;0.82;;
25615;SDS011;13482;48.234;13.006;2022-09-09T10:18:16;1.25;;;0.85;;
25615;SDS011;13482;48.234;13.006;2022-09-09T10:30:26;1.95;;;1.00;;
25615;SDS011;13482;48.234;13.006;2022-09-09T10:33:10;2.10;;;0.90;;
25615;SDS011;13482;48.234;13.006;2022-09-09T10:36:07;1.40;;;0.90;;
25615;SDS011;13482;48.234;13.006;2022-09-09T10:39:38;0.95;;;0.77;;
25615;SDS011;13482;48.234;13.006;2022-09-09T10:42:06;1.00;;;0.70;;
25615;SDS011;13482;48.234;13.006;2022-09-09T10:48:16;1.25;;;0.88;;
25615;SDS011;13482;48.234;13.006;2022-09-09T10:54:10;1.80;;;0.90;;
25615;SDS011;13482;48.234;13.006;2022-09-09T10:57:25;1.60;;;1.10;;
25615;SDS011;13482;48.234;13.006;2022-09-09T11:00:03;1.25;;;0.82;;
25615;SDS011;13482;48.234;13.006;2022-09-09T11:02:43;2.50;;;1.10;;
25615;SDS011;13482;48.234;13.006;2022-09-09T11:05:40;2.05;;;1.10;;
25615;SDS011;13482;48.234;13.006;2022-09-09T11:10:45;1.48;;;0.95;;
25615;SDS011;13482;48.234;13.006;2022-09-09T11:16:24;1.38;;;0.90;;
25615;SDS011;13482;48.234;13.006;2022-09-09T11:19:24;1.40;;;0.70;;
25615;SDS011;13482;48.234;13.006;2022-09-09T11:22:14;1.70;;;0.77;;
25615;SDS011;13482;48.234;13.006;2022-09-09T11:24:53;1.00;;;0.70;;
25615;SDS011;13482;48.234;13.006;2022-09-09T11:27:31;2.45;;;0.65;;
25615;SDS011;13482;48.234;13.006;2022-09-09T11:30:26;0.82;;;0.57;;
25615;SDS011;13482;48.234;13.006;2022-09-09T11:44:47;0.98;;;0.57;;
25615;SDS011;13482;48.234;13.006;2022-09-09T11:52:43;1.25;;;0.60;;
25615;SDS011;13482;48.234;13.006;2022-09-09T11:55:46;0.70;;;0.50;;
25615;SDS011;13482;48.234;13.006;2022-09-09T11:58:15;1.00;;;0.60;;
25615;SDS011;13482;48.234;13.006;2022-09-09T12:00:49;0.77;;;0.40;;
25615;SDS011;13482;48.234;13.006;2022-09-09T12:06:29;1.48;;;0.40;;
25615;SDS011;13482;48.234;13.006;2022-09-09T12:09:09;0.88;;;0.40;;
25615;SDS011;13482;48.234;13.006;2022-09-09T12:11:46;0.90;;;0.40;;
25615;SDS011;13482;48.234;13.006;2022-09-09T12:14:22;0.77;;;0.45;;
25615;SDS011;13482;48.234;13.006;2022-09-09T12:20:19;2.83;;;0.90;;
25615;SDS011;13482;48.234;13.006;2022-09-09T12:29:12;0.98;;;0.60;;
25615;SDS011;13482;48.234;13.006;2022-09-09T12:32:07;2.70;;;0.85;;
25615;SDS011;13482;48.234;13.006;2022-09-09T12:40:22;1.77;;;1.10;;
25615;SDS011;13482;48.234;13.006;2022-09-09T12:43:01;2.33;;;1.20;;
25615;SDS011;13482;48.234;13.006;2022-09-09T12:45:45;1.88;;;1.02;;
25615;SDS011;13482;48.234;13.006;2022-09-09T12:48:12;2.42;;;1.02;;
25615;SDS011;13482;48.234;13.006;2022-09-09T12:50:52;1.40;;;0.97;;
25615;SDS011;13482;48.234;13.006;2022-09-09T12:53:26;1.60;;;1.00;;
25615;SDS011;13482;48.234;13.006;2022-09-09T12:55:59;1.52;;;1.00;;
25615;SDS011;13482;48.234;13.006;2022-09-09T12:58:36;0.93;;;0.70;;
25615;SDS011;13482;48.234;13.006;2022-09-09T13:01:05;1.85;;;0.95;;
25615;SDS011;13482;48.234;13.006;2022-09-09T13:03:33;1.35;;;0.77;;
25615;SDS011;13482;48.234;13.006;2022-09-09T13:06:28;2.70;;;1.05;;
25615;SDS011;13482;48.234;13.006;2022-09-09T13:08:58;1.38;;;0.95;;
25615;SDS011;13482;48.234;13.006;2022-09-09T13:11:31;1.73;;;0.98;;
25615;SDS011;13482;48.234;13.006;2022-09-09T13:14:17;1.00;;;0.77;;
25615;SDS011;13482;48.234;13.006;2022-09-09T13:16:59;1.83;;;0.80;;
25615;SDS011;13482;48.234;13.006;2022-09-09T13:19:31;1.57;;;0.77;;
25615;SDS011;13482;48.234;13.006;2022-09-09T13:27:41;1.80;;;0.88;;
25615;SDS011;13482;48.234;13.006;2022-09-09T13:30:31;1.38;;;0.85;;
25615;SDS011;13482;48.234;13.006;2022-09-09T13:35:47;1.48;;;0.90;;
25615;SDS011;13482;48.234;13.006;2022-09-09T13:38:35;0.95;;;0.70;;
25615;SDS011;13482;48.234;13.006;2022-09-09T13:41:08;1.50;;;0.88;;
25615;SDS011;13482;48.234;13.006;2022-09-09T13:43:43;2.13;;;0.90;;
25615;SDS011;13482;48.234;13.006;2022-09-09T13:49:01;1.10;;;0.90;;
25615;SDS011;13482;48.234;13.006;2022-09-09T13:51:41;0.90;;;0.77;;
25615;SDS011;13482;48.234;13.006;2022-09-09T13:54:16;1.30;;;0.80;;
25615;SDS011;13482;48.234;13.006;2022-09-09T13:56:45;1.42;;;0.70;;
25615;SDS011;13482;48.234;13.006;2022-09-09T13:59:16;1.67;;;0.90;;
25615;SDS011;13482;48.234;13.006;2022-09-09T14:01:46;1.23;;;0.70;;
25615;SDS011;13482;48.234;13.006;2022-09-09T14:04:13;0.90;;;0.60;;
25615;SDS011;13482;48.234;13.006;2022-09-09T14:06:42;3.00;;;0.77;;
25615;SDS011;13482;48.234;13.006;2022-09-09T14:09:10;1.75;;;0.73;;
25615;SDS011;13482;48.234;13.006;2022-09-09T14:11:40;1.00;;;0.50;;
25615;SDS011;13482;48.234;13.006;2022-09-09T14:14:07;1.10;;;0.60;;
25615;SDS011;13482;48.234;13.006;2022-09-09T14:16:35;1.13;;;0.70;;
25615;SDS011;13482;48.234;13.006;2022-09-09T14:19:02;1.23;;;0.60;;
25615;SDS011;13482;48.234;13.006;2022-09-09T14:21:30;0.82;;;0.60;;
25615;SDS011;13482;48.234;13.006;2022-09-09T14:23:57;1.25;;;0.60;;
25615;SDS011;13482;48.234;13.006;2022-09-09T14:26:24;0.73;;;0.50;;
25615;SDS011;13482;48.234;13.006;2022-09-09T14:28:52;0.90;;;0.50;;
25615;SDS011;13482;48.234;13.006;2022-09-09T14:31:22;1.60;;;0.68;;
25615;SDS011;13482;48.234;13.006;2022-09-09T14:33:50;2.45;;;0.60;;
25615;SDS011;13482;48.234;13.006;2022-09-09T14:36:18;1.10;;;0.50;;
25615;SDS011;13482;48.234;13.006;2022-09-09T14:38:46;1.30;;;0.50;;
25615;SDS011;13482;48.234;13.006;2022-09-09T14:41:14;1.10;;;0.60;;
25615;SDS011;13482;48.234;13.006;2022-09-09T14:43:44;1.58;;;0.50;;
25615;SDS011;13482;48.234;13.006;2022-09-09T14:46:13;0.85;;;0.47;;
25615;SDS011;13482;48.234;13.006;2022-09-09T14:48:43;0.77;;;0.50;;
25615;SDS011;13482;48.234;13.006;2022-09-09T14:51:18;0.88;;;0.40;;
25615;SDS011;13482;48.234;13.006;2022-09-09T14:53:52;0.90;;;0.40;;
25615;SDS011;13482;48.234;13.006;2022-09-09T14:56:22;0.55;;;0.30;;
25615;SDS011;13482;48.234;13.006;2022-09-09T14:58:53;0.65;;;0.30;;
25615;SDS011;13482;48.234;13.006;2022-09-09T15:01:22;0.50;;;0.22;;
25615;SDS011;13482;48.234;13.006;2022-09-09T15:03:57;0.60;;;0.20;;
25615;SDS011;13482;48.234;13.006;2022-09-09T15:06:31;0.20;;;0.20;;
25615;SDS011;13482;48.234;13.006;2022-09-09T15:09:02;0.90;;;0.40;;
25615;SDS011;13482;48.234;13.006;2022-09-09T15:11:31;0.52;;;0.20;;
25615;SDS011;13482;48.234;13.006;2022-09-09T15:14:05;0.80;;;0.30;;
25615;SDS011;13482;48.234;13.006;2022-09-09T15:16:34;0.98;;;0.32;;
25615;SDS011;13482;48.234;13.006;2022-09-09T15:19:02;0.70;;;0.20;;
25615;SDS011;13482;48.234;13.006;2022-09-09T15:21:32;0.82;;;0.20;;
25615;SDS011;13482;48.234;13.006;2022-09-09T15:24:01;0.68;;;0.20;;
25615;SDS011;13482;48.234;13.006;2022-09-09T15:26:30;0.20;;;0.10;;
25615;SDS011;13482;48.234;13.006;2022-09-09T15:28:58;0.28;;;0.10;;
25615;SDS011;13482;48.234;13.006;2022-09-09T15:31:29;1.25;;;0.52;;
25615;SDS011;13482;48.234;13.006;2022-09-09T15:34:01;0.73;;;0.28;;
25615;SDS011;13482;48.234;13.006;2022-09-09T15:36:34;0.60;;;0.20;;
25615;SDS011;13482;48.234;13.006;2022-09-09T15:39:08;0.82;;;0.28;;
25615;SDS011;13482;48.234;13.006;2022-09-09T15:41:42;0.60;;;0.30;;
25615;SDS011;13482;48.234;13.006;2022-09-09T15:44:11;0.40;;;0.10;;
25615;SDS011;13482;48.234;13.006;2022-09-09T15:46:40;0.80;;;0.25;;
25615;SDS011;13482;48.234;13.006;2022-09-09T15:49:13;0.70;;;0.30;;
25615;SDS011;13482;48.234;13.006;2022-09-09T15:51:52;1.00;;;0.32;;
25615;SDS011;13482;48.234;13.006;2022-09-09T15:54:25;0.85;;;0.30;;
25615;SDS011;13482;48.234;13.006;2022-09-09T15:56:54;0.40;;;0.20;;
25615;SDS011;13482;48.234;13.006;2022-09-09T15:59:24;1.08;;;0.35;;
25615;SDS011;13482;48.234;13.006;2022-09-09T16:01:54;0.88;;;0.40;;
25615;SDS011;13482;48.234;13.006;2022-09-09T16:04:23;0.90;;;0.50;;
25615;SDS011;13482;48.234;13.006;2022-09-09T16:06:55;0.80;;;0.30;;
25615;SDS011;13482;48.234;13.006;2022-09-09T16:09:25;0.70;;;0.47;;
25615;SDS011;13482;48.234;13.006;2022-09-09T16:11:57;2.22;;;0.80;;
25615;SDS011;13482;48.234;13.006;2022-09-09T16:14:27;1.08;;;0.40;;
25615;SDS011;13482;48.234;13.006;2022-09-09T16:16:55;0.68;;;0.32;;
25615;SDS011;13482;48.234;13.006;2022-09-09T16:19:24;0.75;;;0.30;;
25615;SDS011;13482;48.234;13.006;2022-09-09T16:21:52;0.90;;;0.40;;
25615;SDS011;13482;48.234;13.006;2022-09-09T16:24:19;0.90;;;0.47;;
25615;SDS011;13482;48.234;13.006;2022-09-09T16:26:48;0.65;;;0.35;;
25615;SDS011;13482;48.234;13.006;2022-09-09T16:29:18;1.42;;;0.50;;
25615;SDS011;13482;48.234;13.006;2022-09-09T16:31:46;0.43;;;0.30;;
25615;SDS011;13482;48.234;13.006;2022-09-09T16:34:14;1.15;;;0.47;;
25615;SDS011;13482;48.234;13.006;2022-09-09T16:36:43;0.90;;;0.52;;
25615;SDS011;13482;48.234;13.006;2022-09-09T16:39:12;1.02;;;0.50;;
25615;SDS011;13482;48.234;13.006;2022-09-09T16:41:43;0.80;;;0.43;;
25615;SDS011;13482;48.234;13.006;2022-09-09T16:44:12;0.88;;;0.40;;
25615;SDS011;13482;48.234;13.006;2022-09-09T16:46:42;1.15;;;0.50;;
25615;SDS011;13482;48.234;13.006;2022-09-09T16:49:15;0.85;;;0.32;;
25615;SDS011;13482;48.234;13.006;2022-09-09T16:51:43;0.60;;;0.30;;
25615;SDS011;13482;48.234;13.006;2022-09-09T16:54:16;0.63;;;0.40;;
25615;SDS011;13482;48.234;13.006;2022-09-09T16:56:45;1.13;;;0.40;;
25615;SDS011;13482;48.234;13.006;2022-09-09T16:59:14;1.38;;;0.80;;
25615;SDS011;13482;48.234;13.006;2022-09-09T17:01:45;1.00;;;0.70;;
25615;SDS011;13482;48.234;13.006;2022-09-09T17:04:17;1.23;;;0.70;;
25615;SDS011;13482;48.234;13.006;2022-09-09T17:06:48;2.63;;;0.77;;
25615;SDS011;13482;48.234;13.006;2022-09-09T17:09:17;1.20;;;0.57;;
25615;SDS011;13482;48.234;13.006;2022-09-09T17:11:46;0.50;;;0.32;;
25615;SDS011;13482;48.234;13.006;2022-09-09T17:14:18;0.40;;;0.30;;
25615;SDS011;13482;48.234;13.006;2022-09-09T17:16:49;0.75;;;0.38;;
25615;SDS011;13482;48.234;13.006;2022-09-09T17:19:16;1.08;;;0.40;;
25615;SDS011;13482;48.234;13.006;2022-09-09T17:21:44;0.98;;;0.60;;
25615;SDS011;13482;48.234;13.006;2022-09-09T17:24:33;1.77;;;0.50;;
25615;SDS011;13482;48.234;13.006;2022-09-09T17:27:01;0.60;;;0.22;;
25615;SDS011;13482;48.234;13.006;2022-09-09T17:29:29;0.65;;;0.20;;
25615;SDS011;13482;48.234;13.006;2022-09-09T17:31:56;0.52;;;0.20;;
25615;SDS011;13482;48.234;13.006;2022-09-09T17:34:24;1.27;;;0.60;;
25615;SDS011;13482;48.234;13.006;2022-09-09T17:36:51;0.43;;;0.30;;
25615;SDS011;13482;48.234;13.006;2022-09-09T17:39:19;0.40;;;0.20;;